الصفحة الرئيسية
METAR-TAF:

METAR-TAF

مطار :

مطار الحسيمة الشريف الإدريسي

الحسيمة, المغرب

دائرة عرض: 35-11N, خط طول: 003-51W, ارتفاع: 27 متر

مراقبة الطقس الحالي

تاريخ ووقت الإصدار 52 دقيقة قبل الساعة 03:00UTC
ريح 2 عقدةمن اتجاهات متغيرة
درجة الحرارة 11°درجة مئوية
الرطوبة 71%
ضغط 1026 hPa
الرؤية 10 كم أو أكثر
الغيوم لا تقل 1500 م ولا وجود لمزنة ركامية السحاب الأسود

METAR: GMTA 180300Z VRB02KT CAVOK 11/06 Q1026 NOSIG

زمن: 04:52 (03:52 UTC)

توقعات

تاريخ ووقت الإصدار 4ساعات و 52 دقيقة قبل الساعة 23:00UTC
التوقعات صالحة من18 الساعة 00 UTC إلى 19 الساعة 06 UTC
ريح 6 عقدة من الجنوب/الجنوب الشرقي
الرؤية 10 كم أو أكثر
الغيوم لا تقل 1500 م ولا وجود لمزنة ركامية السحاب الأسود
أصبح
من 18 الساعة 08 UTC إلى 18 الساعة 10 UTC
غيوم متفرقة على ارتفاع 2000 قدم

TAF: GMTA 172300Z 1800/1906 16006KT CAVOK BECMG 1808/1810 SCT020

أرصاد الطقس والتوقعات من أكثر من 4000 مطار (تقارير الطقس للمطار METAR والتنبؤ بالطقس بالمطارTAF).

المحطات المتاحة هي النقط الصفراء والحمراء على الخريطة.

حرك المؤشر فوق النقطة لمعرفة اسم المحطة.

ثم انقر لمعرفة أرصاد وتوقعات الطقس.

لتغيير الخارطة: اضغط على الأزرار الخضراء مع رمز الصليب الأسود للتكبير. على الزر الأخضر مع شرطة للتصغير، أو على الأسهم الخضراء للخرائط المجاورة.


METAR-TAF: